sensor_id;sensor_type;location;lat;lon;timestamp;P1;durP1;ratioP1;P2;durP2;ratioP2
78072;SDS011;67281;48.770;11.440;2023-05-31T00:02:25;4.97;;;2.03;;
78072;SDS011;67281;48.770;11.440;2023-05-31T00:05:06;3.27;;;2.60;;
78072;SDS011;67281;48.770;11.440;2023-05-31T00:08:03;2.33;;;2.00;;
78072;SDS011;67281;48.770;11.440;2023-05-31T00:10:58;7.33;;;2.17;;
78072;SDS011;67281;48.770;11.440;2023-05-31T00:13:28;5.27;;;1.80;;
78072;SDS011;67281;48.770;11.440;2023-05-31T00:15:56;3.70;;;1.87;;
78072;SDS011;67281;48.770;11.440;2023-05-31T00:18:23;3.10;;;1.73;;
78072;SDS011;67281;48.770;11.440;2023-05-31T00:21:27;2.30;;;2.10;;
78072;SDS011;67281;48.770;11.440;2023-05-31T00:23:54;3.37;;;2.17;;
78072;SDS011;67281;48.770;11.440;2023-05-31T00:26:43;6.40;;;1.70;;
78072;SDS011;67281;48.770;11.440;2023-05-31T00:29:10;3.00;;;1.90;;
78072;SDS011;67281;48.770;11.440;2023-05-31T00:31:37;3.43;;;2.50;;
78072;SDS011;67281;48.770;11.440;2023-05-31T00:34:05;3.67;;;1.80;;
78072;SDS011;67281;48.770;11.440;2023-05-31T00:36:41;2.90;;;2.03;;
78072;SDS011;67281;48.770;11.440;2023-05-31T00:39:09;2.40;;;2.00;;
78072;SDS011;67281;48.770;11.440;2023-05-31T00:42:23;2.23;;;1.87;;
78072;SDS011;67281;48.770;11.440;2023-05-31T00:44:44;3.07;;;1.97;;
78072;SDS011;67281;48.770;11.440;2023-05-31T00:47:11;2.87;;;2.07;;
78072;SDS011;67281;48.770;11.440;2023-05-31T00:50:04;3.30;;;2.20;;
78072;SDS011;67281;48.770;11.440;2023-05-31T00:52:49;2.83;;;2.00;;
78072;SDS011;67281;48.770;11.440;2023-05-31T00:55:23;2.90;;;2.07;;
78072;SDS011;67281;48.770;11.440;2023-05-31T00:57:51;3.20;;;2.20;;
78072;SDS011;67281;48.770;11.440;2023-05-31T01:00:25;2.20;;;2.00;;
78072;SDS011;67281;48.770;11.440;2023-05-31T01:03:30;5.47;;;1.90;;
78072;SDS011;67281;48.770;11.440;2023-05-31T01:09:04;5.27;;;2.40;;
78072;SDS011;67281;48.770;11.440;2023-05-31T01:11:52;2.83;;;1.70;;
78072;SDS011;67281;48.770;11.440;2023-05-31T01:14:29;3.10;;;2.37;;
78072;SDS011;67281;48.770;11.440;2023-05-31T01:18:44;3.07;;;1.93;;
78072;SDS011;67281;48.770;11.440;2023-05-31T01:20:42;6.97;;;2.17;;
78072;SDS011;67281;48.770;11.440;2023-05-31T01:28:52;4.00;;;1.90;;
78072;SDS011;67281;48.770;11.440;2023-05-31T01:31:44;4.30;;;2.10;;
78072;SDS011;67281;48.770;11.440;2023-05-31T01:34:13;3.50;;;2.20;;
78072;SDS011;67281;48.770;11.440;2023-05-31T01:36:50;4.33;;;2.10;;
78072;SDS011;67281;48.770;11.440;2023-05-31T01:39:37;2.73;;;1.90;;
78072;SDS011;67281;48.770;11.440;2023-05-31T01:42:05;4.47;;;2.00;;
78072;SDS011;67281;48.770;11.440;2023-05-31T01:44:45;4.60;;;2.10;;
78072;SDS011;67281;48.770;11.440;2023-05-31T01:47:29;2.87;;;2.00;;
78072;SDS011;67281;48.770;11.440;2023-05-31T01:50:20;3.23;;;1.80;;
78072;SDS011;67281;48.770;11.440;2023-05-31T01:52:56;3.10;;;2.10;;
78072;SDS011;67281;48.770;11.440;2023-05-31T01:55:23;3.30;;;2.23;;
78072;SDS011;67281;48.770;11.440;2023-05-31T01:57:50;2.70;;;2.03;;
78072;SDS011;67281;48.770;11.440;2023-05-31T02:00:18;2.30;;;2.10;;
78072;SDS011;67281;48.770;11.440;2023-05-31T02:02:46;2.00;;;1.80;;
78072;SDS011;67281;48.770;11.440;2023-05-31T02:05:17;2.87;;;2.23;;
78072;SDS011;67281;48.770;11.440;2023-05-31T02:07:44;4.77;;;2.50;;
78072;SDS011;67281;48.770;11.440;2023-05-31T02:10:15;4.43;;;2.10;;
78072;SDS011;67281;48.770;11.440;2023-05-31T02:12:42;4.03;;;2.00;;
78072;SDS011;67281;48.770;11.440;2023-05-31T02:15:23;6.23;;;2.30;;
78072;SDS011;67281;48.770;11.440;2023-05-31T02:17:53;3.50;;;2.00;;
78072;SDS011;67281;48.770;11.440;2023-05-31T02:20:34;3.47;;;2.43;;
78072;SDS011;67281;48.770;11.440;2023-05-31T02:23:07;7.97;;;2.93;;
78072;SDS011;67281;48.770;11.440;2023-05-31T02:28:43;4.47;;;2.43;;
78072;SDS011;67281;48.770;11.440;2023-05-31T02:31:14;2.03;;;1.80;;
78072;SDS011;67281;48.770;11.440;2023-05-31T02:33:46;3.10;;;2.00;;
78072;SDS011;67281;48.770;11.440;2023-05-31T02:36:32;4.40;;;2.27;;
78072;SDS011;67281;48.770;11.440;2023-05-31T02:39:00;2.87;;;2.03;;
78072;SDS011;67281;48.770;11.440;2023-05-31T02:42:13;3.13;;;2.27;;
78072;SDS011;67281;48.770;11.440;2023-05-31T02:44:40;4.23;;;2.20;;
78072;SDS011;67281;48.770;11.440;2023-05-31T02:47:07;2.70;;;1.87;;
78072;SDS011;67281;48.770;11.440;2023-05-31T02:49:34;4.80;;;1.80;;
78072;SDS011;67281;48.770;11.440;2023-05-31T02:52:02;4.27;;;2.17;;
78072;SDS011;67281;48.770;11.440;2023-05-31T02:54:29;3.00;;;2.27;;
78072;SDS011;67281;48.770;11.440;2023-05-31T02:56:57;3.30;;;2.27;;
78072;SDS011;67281;48.770;11.440;2023-05-31T02:59:25;3.33;;;1.97;;
78072;SDS011;67281;48.770;11.440;2023-05-31T03:01:52;5.37;;;2.10;;
78072;SDS011;67281;48.770;11.440;2023-05-31T03:04:20;4.00;;;2.10;;
78072;SDS011;67281;48.770;11.440;2023-05-31T03:07:33;3.43;;;2.07;;
78072;SDS011;67281;48.770;11.440;2023-05-31T03:09:48;3.20;;;2.33;;
78072;SDS011;67281;48.770;11.440;2023-05-31T03:15:04;3.10;;;2.40;;
78072;SDS011;67281;48.770;11.440;2023-05-31T03:17:32;3.97;;;2.30;;
78072;SDS011;67281;48.770;11.440;2023-05-31T03:20:24;2.73;;;1.90;;
78072;SDS011;67281;48.770;11.440;2023-05-31T03:22:54;2.80;;;2.00;;
78072;SDS011;67281;48.770;11.440;2023-05-31T03:25:21;4.27;;;2.57;;
78072;SDS011;67281;48.770;11.440;2023-05-31T03:27:51;3.13;;;2.50;;
78072;SDS011;67281;48.770;11.440;2023-05-31T03:30:24;4.93;;;2.17;;
78072;SDS011;67281;48.770;11.440;2023-05-31T03:32:51;4.67;;;2.33;;
78072;SDS011;67281;48.770;11.440;2023-05-31T03:35:24;3.33;;;2.03;;
78072;SDS011;67281;48.770;11.440;2023-05-31T03:37:52;3.77;;;2.50;;
78072;SDS011;67281;48.770;11.440;2023-05-31T03:40:20;8.43;;;2.33;;
78072;SDS011;67281;48.770;11.440;2023-05-31T03:42:47;6.33;;;2.23;;
78072;SDS011;67281;48.770;11.440;2023-05-31T03:45:14;10.23;;;2.20;;
78072;SDS011;67281;48.770;11.440;2023-05-31T03:47:42;4.20;;;2.10;;
78072;SDS011;67281;48.770;11.440;2023-05-31T03:50:15;5.13;;;2.40;;
78072;SDS011;67281;48.770;11.440;2023-05-31T03:52:53;5.20;;;2.40;;
78072;SDS011;67281;48.770;11.440;2023-05-31T03:55:40;3.70;;;2.20;;
78072;SDS011;67281;48.770;11.440;2023-05-31T03:58:08;3.60;;;2.40;;
78072;SDS011;67281;48.770;11.440;2023-05-31T04:00:44;5.57;;;2.73;;
78072;SDS011;67281;48.770;11.440;2023-05-31T04:03:11;3.43;;;2.30;;
78072;SDS011;67281;48.770;11.440;2023-05-31T04:05:39;5.37;;;2.07;;
78072;SDS011;67281;48.770;11.440;2023-05-31T04:08:58;5.93;;;2.37;;
78072;SDS011;67281;48.770;11.440;2023-05-31T04:11:31;3.77;;;2.23;;
78072;SDS011;67281;48.770;11.440;2023-05-31T04:14:16;4.17;;;2.30;;
78072;SDS011;67281;48.770;11.440;2023-05-31T04:16:46;3.83;;;2.43;;
78072;SDS011;67281;48.770;11.440;2023-05-31T04:19:14;3.27;;;1.83;;
78072;SDS011;67281;48.770;11.440;2023-05-31T04:21:44;3.40;;;2.40;;
78072;SDS011;67281;48.770;11.440;2023-05-31T04:24:18;4.77;;;2.37;;
78072;SDS011;67281;48.770;11.440;2023-05-31T04:27:05;9.87;;;3.00;;
78072;SDS011;67281;48.770;11.440;2023-05-31T04:29:40;4.63;;;2.30;;
78072;SDS011;67281;48.770;11.440;2023-05-31T04:36:15;2.77;;;2.10;;
78072;SDS011;67281;48.770;11.440;2023-05-31T05:02:52;4.30;;;2.30;;
78072;SDS011;67281;48.770;11.440;2023-05-31T05:06:14;3.00;;;2.03;;
78072;SDS011;67281;48.770;11.440;2023-05-31T05:08:54;4.17;;;2.13;;
78072;SDS011;67281;48.770;11.440;2023-05-31T05:11:34;5.07;;;2.70;;
78072;SDS011;67281;48.770;11.440;2023-05-31T05:14:01;3.90;;;2.00;;
78072;SDS011;67281;48.770;11.440;2023-05-31T05:16:58;5.10;;;2.30;;
78072;SDS011;67281;48.770;11.440;2023-05-31T05:19:40;9.07;;;2.17;;
78072;SDS011;67281;48.770;11.440;2023-05-31T05:34:40;4.63;;;1.93;;
78072;SDS011;67281;48.770;11.440;2023-05-31T05:37:10;7.03;;;2.40;;
78072;SDS011;67281;48.770;11.440;2023-05-31T05:40:12;3.43;;;1.90;;
78072;SDS011;67281;48.770;11.440;2023-05-31T05:43:00;4.23;;;2.40;;
78072;SDS011;67281;48.770;11.440;2023-05-31T05:45:31;6.17;;;2.17;;
78072;SDS011;67281;48.770;11.440;2023-05-31T05:47:59;3.60;;;2.10;;
78072;SDS011;67281;48.770;11.440;2023-05-31T05:50:27;4.47;;;2.17;;
78072;SDS011;67281;48.770;11.440;2023-05-31T05:52:54;4.23;;;2.10;;
78072;SDS011;67281;48.770;11.440;2023-05-31T05:55:21;7.50;;;2.20;;
78072;SDS011;67281;48.770;11.440;2023-05-31T05:58:20;5.67;;;2.40;;
78072;SDS011;67281;48.770;11.440;2023-05-31T06:00:47;3.90;;;2.30;;
78072;SDS011;67281;48.770;11.440;2023-05-31T06:03:26;6.60;;;2.40;;
78072;SDS011;67281;48.770;11.440;2023-05-31T06:06:37;2.80;;;2.20;;
78072;SDS011;67281;48.770;11.440;2023-05-31T06:09:19;5.57;;;2.30;;
78072;SDS011;67281;48.770;11.440;2023-05-31T06:11:48;4.07;;;1.80;;
78072;SDS011;67281;48.770;11.440;2023-05-31T06:17:33;5.90;;;2.10;;
78072;SDS011;67281;48.770;11.440;2023-05-31T06:20:01;4.80;;;2.40;;
78072;SDS011;67281;48.770;11.440;2023-05-31T06:22:33;3.20;;;2.20;;
78072;SDS011;67281;48.770;11.440;2023-05-31T06:25:00;3.80;;;2.20;;
78072;SDS011;67281;48.770;11.440;2023-05-31T06:27:30;5.00;;;2.30;;
78072;SDS011;67281;48.770;11.440;2023-05-31T06:29:58;3.57;;;2.00;;
78072;SDS011;67281;48.770;11.440;2023-05-31T06:37:12;2.73;;;2.20;;
78072;SDS011;67281;48.770;11.440;2023-05-31T06:40:16;5.03;;;1.90;;
78072;SDS011;67281;48.770;11.440;2023-05-31T06:42:43;4.30;;;2.20;;
78072;SDS011;67281;48.770;11.440;2023-05-31T06:48:00;2.77;;;1.83;;
78072;SDS011;67281;48.770;11.440;2023-05-31T06:50:29;2.67;;;2.00;;
78072;SDS011;67281;48.770;11.440;2023-05-31T06:52:56;3.30;;;2.10;;
78072;SDS011;67281;48.770;11.440;2023-05-31T06:55:26;3.90;;;2.20;;
78072;SDS011;67281;48.770;11.440;2023-05-31T06:57:54;6.57;;;2.00;;
78072;SDS011;67281;48.770;11.440;2023-05-31T07:00:47;3.10;;;1.87;;
78072;SDS011;67281;48.770;11.440;2023-05-31T07:03:23;6.87;;;2.27;;
78072;SDS011;67281;48.770;11.440;2023-05-31T07:06:06;4.67;;;2.50;;
78072;SDS011;67281;48.770;11.440;2023-05-31T07:12:15;3.93;;;2.20;;
78072;SDS011;67281;48.770;11.440;2023-05-31T07:15:39;5.07;;;2.10;;
78072;SDS011;67281;48.770;11.440;2023-05-31T07:18:22;6.37;;;2.40;;
78072;SDS011;67281;48.770;11.440;2023-05-31T07:21:06;5.17;;;2.43;;
78072;SDS011;67281;48.770;11.440;2023-05-31T07:23:36;4.27;;;2.73;;
78072;SDS011;67281;48.770;11.440;2023-05-31T07:26:23;2.87;;;2.10;;
78072;SDS011;67281;48.770;11.440;2023-05-31T07:28:54;5.53;;;2.40;;
78072;SDS011;67281;48.770;11.440;2023-05-31T07:31:24;7.43;;;2.23;;
78072;SDS011;67281;48.770;11.440;2023-05-31T07:33:51;5.03;;;2.30;;
78072;SDS011;67281;48.770;11.440;2023-05-31T07:36:19;4.60;;;2.07;;
78072;SDS011;67281;48.770;11.440;2023-05-31T07:39:02;4.10;;;2.33;;
78072;SDS011;67281;48.770;11.440;2023-05-31T07:45:31;5.07;;;2.30;;
78072;SDS011;67281;48.770;11.440;2023-05-31T07:48:07;4.70;;;2.27;;
78072;SDS011;67281;48.770;11.440;2023-05-31T07:50:44;6.47;;;2.17;;
78072;SDS011;67281;48.770;11.440;2023-05-31T07:53:20;2.60;;;1.80;;
78072;SDS011;67281;48.770;11.440;2023-05-31T07:56:04;5.17;;;2.13;;
78072;SDS011;67281;48.770;11.440;2023-05-31T07:58:32;6.63;;;2.33;;
78072;SDS011;67281;48.770;11.440;2023-05-31T08:01:50;3.73;;;2.30;;
78072;SDS011;67281;48.770;11.440;2023-05-31T08:07:29;3.70;;;2.40;;
78072;SDS011;67281;48.770;11.440;2023-05-31T08:10:13;4.80;;;2.27;;
78072;SDS011;67281;48.770;11.440;2023-05-31T08:13:15;4.07;;;2.10;;
78072;SDS011;67281;48.770;11.440;2023-05-31T08:23:26;5.03;;;2.47;;
78072;SDS011;67281;48.770;11.440;2023-05-31T08:27:04;4.80;;;2.40;;
78072;SDS011;67281;48.770;11.440;2023-05-31T08:30:18;4.30;;;2.50;;
78072;SDS011;67281;48.770;11.440;2023-05-31T08:32:37;8.53;;;2.70;;
78072;SDS011;67281;48.770;11.440;2023-05-31T08:35:12;5.13;;;2.33;;
78072;SDS011;67281;48.770;11.440;2023-05-31T08:38:09;3.40;;;2.20;;
78072;SDS011;67281;48.770;11.440;2023-05-31T08:40:37;7.37;;;2.30;;
78072;SDS011;67281;48.770;11.440;2023-05-31T08:43:06;5.77;;;2.30;;
78072;SDS011;67281;48.770;11.440;2023-05-31T08:46:00;4.50;;;2.23;;
78072;SDS011;67281;48.770;11.440;2023-05-31T08:51:11;4.53;;;2.60;;
78072;SDS011;67281;48.770;11.440;2023-05-31T08:54:09;4.10;;;2.30;;
78072;SDS011;67281;48.770;11.440;2023-05-31T08:57:15;7.23;;;3.10;;
78072;SDS011;67281;48.770;11.440;2023-05-31T08:59:52;5.07;;;2.40;;
78072;SDS011;67281;48.770;11.440;2023-05-31T09:02:29;5.63;;;2.60;;
78072;SDS011;67281;48.770;11.440;2023-05-31T09:04:57;8.30;;;3.03;;
78072;SDS011;67281;48.770;11.440;2023-05-31T09:07:36;4.40;;;2.23;;
78072;SDS011;67281;48.770;11.440;2023-05-31T09:10:16;7.13;;;2.57;;
78072;SDS011;67281;48.770;11.440;2023-05-31T09:12:43;6.03;;;2.60;;
78072;SDS011;67281;48.770;11.440;2023-05-31T09:15:21;5.53;;;2.23;;
78072;SDS011;67281;48.770;11.440;2023-05-31T09:17:57;6.97;;;2.40;;
78072;SDS011;67281;48.770;11.440;2023-05-31T09:20:31;5.83;;;2.17;;
78072;SDS011;67281;48.770;11.440;2023-05-31T09:23:03;5.33;;;2.53;;
78072;SDS011;67281;48.770;11.440;2023-05-31T09:25:44;5.67;;;2.30;;
78072;SDS011;67281;48.770;11.440;2023-05-31T09:28:34;4.57;;;2.87;;
78072;SDS011;67281;48.770;11.440;2023-05-31T09:31:05;4.70;;;2.60;;
78072;SDS011;67281;48.770;11.440;2023-05-31T09:33:38;5.13;;;2.37;;
78072;SDS011;67281;48.770;11.440;2023-05-31T09:36:26;6.80;;;2.30;;
78072;SDS011;67281;48.770;11.440;2023-05-31T09:38:57;10.97;;;2.50;;
78072;SDS011;67281;48.770;11.440;2023-05-31T09:41:32;4.53;;;2.20;;
78072;SDS011;67281;48.770;11.440;2023-05-31T09:44:37;5.67;;;2.33;;
78072;SDS011;67281;48.770;11.440;2023-05-31T09:47:07;7.50;;;2.80;;
78072;SDS011;67281;48.770;11.440;2023-05-31T09:49:35;6.27;;;2.67;;
78072;SDS011;67281;48.770;11.440;2023-05-31T09:52:02;6.67;;;2.73;;
78072;SDS011;67281;48.770;11.440;2023-05-31T09:54:29;4.80;;;2.23;;
78072;SDS011;67281;48.770;11.440;2023-05-31T09:57:04;3.37;;;2.40;;
78072;SDS011;67281;48.770;11.440;2023-05-31T09:59:35;4.47;;;2.40;;
78072;SDS011;67281;48.770;11.440;2023-05-31T10:02:11;5.37;;;2.50;;
78072;SDS011;67281;48.770;11.440;2023-05-31T10:04:41;5.70;;;2.37;;
78072;SDS011;67281;48.770;11.440;2023-05-31T10:07:10;5.50;;;2.73;;
78072;SDS011;67281;48.770;11.440;2023-05-31T10:09:37;4.53;;;2.37;;
78072;SDS011;67281;48.770;11.440;2023-05-31T10:12:05;5.00;;;2.80;;
78072;SDS011;67281;48.770;11.440;2023-05-31T10:14:36;5.83;;;2.37;;
78072;SDS011;67281;48.770;11.440;2023-05-31T10:17:13;6.40;;;2.27;;
78072;SDS011;67281;48.770;11.440;2023-05-31T10:20:01;5.30;;;2.60;;
78072;SDS011;67281;48.770;11.440;2023-05-31T10:22:39;6.97;;;2.73;;
78072;SDS011;67281;48.770;11.440;2023-05-31T10:25:10;3.47;;;2.43;;
78072;SDS011;67281;48.770;11.440;2023-05-31T10:28:17;5.30;;;2.10;;
78072;SDS011;67281;48.770;11.440;2023-05-31T10:31:17;9.63;;;2.73;;
78072;SDS011;67281;48.770;11.440;2023-05-31T10:34:00;6.03;;;2.47;;
78072;SDS011;67281;48.770;11.440;2023-05-31T10:37:10;4.03;;;2.60;;
78072;SDS011;67281;48.770;11.440;2023-05-31T10:40:03;6.67;;;2.93;;
78072;SDS011;67281;48.770;11.440;2023-05-31T10:42:44;5.20;;;2.60;;
78072;SDS011;67281;48.770;11.440;2023-05-31T10:45:42;5.90;;;2.63;;
78072;SDS011;67281;48.770;11.440;2023-05-31T10:51:40;4.40;;;2.73;;
78072;SDS011;67281;48.770;11.440;2023-05-31T10:57:05;8.77;;;2.90;;
78072;SDS011;67281;48.770;11.440;2023-05-31T11:00:02;7.77;;;3.00;;
78072;SDS011;67281;48.770;11.440;2023-05-31T11:06:06;9.13;;;2.70;;
78072;SDS011;67281;48.770;11.440;2023-05-31T11:08:35;5.10;;;3.00;;
78072;SDS011;67281;48.770;11.440;2023-05-31T11:14:03;8.50;;;2.83;;
78072;SDS011;67281;48.770;11.440;2023-05-31T11:19:14;6.30;;;3.13;;
78072;SDS011;67281;48.770;11.440;2023-05-31T11:28:04;6.80;;;2.90;;
78072;SDS011;67281;48.770;11.440;2023-05-31T11:31:02;3.73;;;2.80;;
78072;SDS011;67281;48.770;11.440;2023-05-31T11:33:50;6.03;;;2.80;;
78072;SDS011;67281;48.770;11.440;2023-05-31T11:36:24;5.27;;;2.80;;
78072;SDS011;67281;48.770;11.440;2023-05-31T11:38:57;5.60;;;2.83;;
78072;SDS011;67281;48.770;11.440;2023-05-31T11:41:30;11.13;;;3.07;;
78072;SDS011;67281;48.770;11.440;2023-05-31T11:44:02;6.27;;;3.00;;
78072;SDS011;67281;48.770;11.440;2023-05-31T11:46:30;4.83;;;2.90;;
78072;SDS011;67281;48.770;11.440;2023-05-31T11:48:57;6.23;;;3.30;;
78072;SDS011;67281;48.770;11.440;2023-05-31T11:51:24;5.43;;;2.77;;
78072;SDS011;67281;48.770;11.440;2023-05-31T11:53:55;5.07;;;3.20;;
78072;SDS011;67281;48.770;11.440;2023-05-31T11:56:32;6.90;;;2.60;;
78072;SDS011;67281;48.770;11.440;2023-05-31T11:59:05;5.27;;;3.00;;
78072;SDS011;67281;48.770;11.440;2023-05-31T12:01:35;3.93;;;2.63;;
78072;SDS011;67281;48.770;11.440;2023-05-31T12:07:24;4.63;;;2.77;;
78072;SDS011;67281;48.770;11.440;2023-05-31T12:09:52;5.53;;;2.43;;
78072;SDS011;67281;48.770;11.440;2023-05-31T12:15:29;4.50;;;2.73;;
78072;SDS011;67281;48.770;11.440;2023-05-31T12:18:06;5.57;;;2.80;;
78072;SDS011;67281;48.770;11.440;2023-05-31T12:20:46;4.87;;;2.77;;
78072;SDS011;67281;48.770;11.440;2023-05-31T12:26:59;8.33;;;2.83;;
78072;SDS011;67281;48.770;11.440;2023-05-31T12:29:30;6.27;;;2.83;;
78072;SDS011;67281;48.770;11.440;2023-05-31T12:32:02;3.73;;;2.43;;
78072;SDS011;67281;48.770;11.440;2023-05-31T12:34:33;4.87;;;2.77;;
78072;SDS011;67281;48.770;11.440;2023-05-31T12:37:08;4.53;;;2.73;;
78072;SDS011;67281;48.770;11.440;2023-05-31T12:39:37;8.63;;;3.20;;
78072;SDS011;67281;48.770;11.440;2023-05-31T12:42:16;4.33;;;2.97;;
78072;SDS011;67281;48.770;11.440;2023-05-31T12:45:31;4.77;;;2.87;;
78072;SDS011;67281;48.770;11.440;2023-05-31T12:48:15;6.53;;;2.93;;
78072;SDS011;67281;48.770;11.440;2023-05-31T12:51:00;4.40;;;3.10;;
78072;SDS011;67281;48.770;11.440;2023-05-31T12:56:29;4.20;;;2.92;;
78072;SDS011;67281;48.770;11.440;2023-05-31T12:58:59;5.33;;;3.17;;
78072;SDS011;67281;48.770;11.440;2023-05-31T13:01:27;3.72;;;2.92;;
78072;SDS011;67281;48.770;11.440;2023-05-31T13:04:12;5.73;;;3.00;;
78072;SDS011;67281;48.770;11.440;2023-05-31T13:06:56;3.70;;;2.30;;
78072;SDS011;67281;48.770;11.440;2023-05-31T13:09:28;5.22;;;3.00;;
78072;SDS011;67281;48.770;11.440;2023-05-31T13:12:04;4.47;;;2.97;;
78072;SDS011;67281;48.770;11.440;2023-05-31T13:14:35;7.65;;;2.83;;
78072;SDS011;67281;48.770;11.440;2023-05-31T13:17:06;5.53;;;2.63;;
78072;SDS011;67281;48.770;11.440;2023-05-31T13:19:36;5.80;;;3.07;;
78072;SDS011;67281;48.770;11.440;2023-05-31T13:22:04;5.93;;;2.83;;
78072;SDS011;67281;48.770;11.440;2023-05-31T13:27:20;4.57;;;3.13;;
78072;SDS011;67281;48.770;11.440;2023-05-31T13:29:50;4.70;;;3.40;;
78072;SDS011;67281;48.770;11.440;2023-05-31T13:32:26;4.13;;;2.83;;
78072;SDS011;67281;48.770;11.440;2023-05-31T13:34:54;5.88;;;3.08;;
78072;SDS011;67281;48.770;11.440;2023-05-31T13:37:26;4.97;;;3.35;;
78072;SDS011;67281;48.770;11.440;2023-05-31T13:39:53;6.93;;;3.30;;
78072;SDS011;67281;48.770;11.440;2023-05-31T13:42:22;4.60;;;2.70;;
78072;SDS011;67281;48.770;11.440;2023-05-31T13:44:50;7.47;;;3.00;;
78072;SDS011;67281;48.770;11.440;2023-05-31T13:47:22;6.73;;;2.70;;
78072;SDS011;67281;48.770;11.440;2023-05-31T13:50:10;5.27;;;3.00;;
78072;SDS011;67281;48.770;11.440;2023-05-31T13:52:58;5.40;;;2.72;;
78072;SDS011;67281;48.770;11.440;2023-05-31T13:55:38;4.57;;;2.57;;
78072;SDS011;67281;48.770;11.440;2023-05-31T13:58:30;7.43;;;2.97;;
78072;SDS011;67281;48.770;11.440;2023-05-31T14:01:01;5.18;;;3.28;;
78072;SDS011;67281;48.770;11.440;2023-05-31T14:03:34;7.13;;;3.40;;
78072;SDS011;67281;48.770;11.440;2023-05-31T14:06:07;5.10;;;3.00;;
78072;SDS011;67281;48.770;11.440;2023-05-31T14:09:09;7.50;;;3.47;;
78072;SDS011;67281;48.770;11.440;2023-05-31T14:11:42;7.88;;;3.38;;
78072;SDS011;67281;48.770;11.440;2023-05-31T14:14:09;5.90;;;2.90;;
78072;SDS011;67281;48.770;11.440;2023-05-31T14:16:37;7.53;;;3.45;;
78072;SDS011;67281;48.770;11.440;2023-05-31T14:19:04;8.02;;;3.58;;
78072;SDS011;67281;48.770;11.440;2023-05-31T14:21:37;4.45;;;2.88;;
78072;SDS011;67281;48.770;11.440;2023-05-31T14:24:08;7.32;;;2.92;;
78072;SDS011;67281;48.770;11.440;2023-05-31T14:26:55;4.40;;;3.10;;
78072;SDS011;67281;48.770;11.440;2023-05-31T14:29:22;7.35;;;3.10;;
78072;SDS011;67281;48.770;11.440;2023-05-31T14:31:49;7.30;;;3.42;;
78072;SDS011;67281;48.770;11.440;2023-05-31T14:34:23;8.98;;;5.07;;
78072;SDS011;67281;48.770;11.440;2023-05-31T14:36:56;6.53;;;3.38;;
78072;SDS011;67281;48.770;11.440;2023-05-31T14:39:27;7.32;;;3.42;;
78072;SDS011;67281;48.770;11.440;2023-05-31T14:42:03;8.77;;;2.78;;
78072;SDS011;67281;48.770;11.440;2023-05-31T14:44:30;5.25;;;3.08;;
78072;SDS011;67281;48.770;11.440;2023-05-31T14:47:01;4.82;;;3.13;;
78072;SDS011;67281;48.770;11.440;2023-05-31T14:49:29;5.80;;;2.97;;
78072;SDS011;67281;48.770;11.440;2023-05-31T14:52:02;5.78;;;2.90;;
78072;SDS011;67281;48.770;11.440;2023-05-31T14:54:39;5.57;;;2.85;;
78072;SDS011;67281;48.770;11.440;2023-05-31T14:57:09;10.85;;;3.08;;
78072;SDS011;67281;48.770;11.440;2023-05-31T14:59:45;6.70;;;3.30;;
78072;SDS011;67281;48.770;11.440;2023-05-31T15:02:12;6.90;;;3.08;;
78072;SDS011;67281;48.770;11.440;2023-05-31T15:04:40;3.72;;;2.65;;
78072;SDS011;67281;48.770;11.440;2023-05-31T15:07:08;4.90;;;3.30;;
78072;SDS011;67281;48.770;11.440;2023-05-31T15:09:35;4.47;;;3.25;;
78072;SDS011;67281;48.770;11.440;2023-05-31T15:12:05;6.38;;;3.50;;
78072;SDS011;67281;48.770;11.440;2023-05-31T15:14:46;6.30;;;3.30;;
78072;SDS011;67281;48.770;11.440;2023-05-31T15:17:27;5.15;;;3.20;;
78072;SDS011;67281;48.770;11.440;2023-05-31T15:20:05;3.90;;;3.30;;
78072;SDS011;67281;48.770;11.440;2023-05-31T15:22:33;5.78;;;3.38;;
78072;SDS011;67281;48.770;11.440;2023-05-31T15:25:04;5.35;;;3.50;;
78072;SDS011;67281;48.770;11.440;2023-05-31T15:27:40;4.00;;;3.47;;
78072;SDS011;67281;48.770;11.440;2023-05-31T15:30:07;4.80;;;3.13;;
78072;SDS011;67281;48.770;11.440;2023-05-31T15:32:41;5.85;;;3.10;;
78072;SDS011;67281;48.770;11.440;2023-05-31T15:35:08;8.07;;;3.83;;
78072;SDS011;67281;48.770;11.440;2023-05-31T15:37:36;5.93;;;2.88;;
78072;SDS011;67281;48.770;11.440;2023-05-31T15:40:03;4.20;;;3.13;;
78072;SDS011;67281;48.770;11.440;2023-05-31T15:42:31;4.97;;;3.20;;
78072;SDS011;67281;48.770;11.440;2023-05-31T15:45:04;5.53;;;3.70;;
78072;SDS011;67281;48.770;11.440;2023-05-31T15:47:35;5.90;;;3.35;;
78072;SDS011;67281;48.770;11.440;2023-05-31T15:50:05;3.95;;;3.00;;
78072;SDS011;67281;48.770;11.440;2023-05-31T15:52:32;9.23;;;3.60;;
78072;SDS011;67281;48.770;11.440;2023-05-31T15:54:59;7.18;;;3.22;;
78072;SDS011;67281;48.770;11.440;2023-05-31T15:57:30;4.30;;;3.50;;
78072;SDS011;67281;48.770;11.440;2023-05-31T16:00:09;5.18;;;3.45;;
78072;SDS011;67281;48.770;11.440;2023-05-31T16:02:37;7.88;;;3.38;;
78072;SDS011;67281;48.770;11.440;2023-05-31T16:05:05;3.80;;;3.10;;
78072;SDS011;67281;48.770;11.440;2023-05-31T16:07:35;5.45;;;3.20;;
78072;SDS011;67281;48.770;11.440;2023-05-31T16:10:03;5.75;;;3.90;;
78072;SDS011;67281;48.770;11.440;2023-05-31T16:12:47;4.80;;;3.60;;
78072;SDS011;67281;48.770;11.440;2023-05-31T16:15:14;4.97;;;3.30;;
78072;SDS011;67281;48.770;11.440;2023-05-31T16:17:44;5.05;;;3.33;;
78072;SDS011;67281;48.770;11.440;2023-05-31T16:20:11;6.22;;;3.20;;
78072;SDS011;67281;48.770;11.440;2023-05-31T16:22:38;5.53;;;3.38;;
78072;SDS011;67281;48.770;11.440;2023-05-31T16:25:08;7.15;;;3.17;;
78072;SDS011;67281;48.770;11.440;2023-05-31T16:27:36;5.78;;;3.28;;
78072;SDS011;67281;48.770;11.440;2023-05-31T16:30:06;5.78;;;3.50;;
78072;SDS011;67281;48.770;11.440;2023-05-31T16:32:33;4.70;;;3.15;;
78072;SDS011;67281;48.770;11.440;2023-05-31T16:35:03;10.55;;;3.95;;
78072;SDS011;67281;48.770;11.440;2023-05-31T16:37:30;6.72;;;3.60;;
78072;SDS011;67281;48.770;11.440;2023-05-31T16:39:57;4.15;;;3.00;;
78072;SDS011;67281;48.770;11.440;2023-05-31T16:42:26;6.03;;;3.58;;
78072;SDS011;67281;48.770;11.440;2023-05-31T16:44:54;5.32;;;3.20;;
78072;SDS011;67281;48.770;11.440;2023-05-31T16:47:22;6.00;;;3.60;;
78072;SDS011;67281;48.770;11.440;2023-05-31T16:49:49;6.82;;;2.90;;
78072;SDS011;67281;48.770;11.440;2023-05-31T16:52:16;4.43;;;3.15;;
78072;SDS011;67281;48.770;11.440;2023-05-31T16:54:44;5.95;;;3.03;;
78072;SDS011;67281;48.770;11.440;2023-05-31T16:57:11;6.88;;;3.58;;
78072;SDS011;67281;48.770;11.440;2023-05-31T16:59:39;7.32;;;3.70;;
78072;SDS011;67281;48.770;11.440;2023-05-31T17:02:06;5.95;;;3.22;;
78072;SDS011;67281;48.770;11.440;2023-05-31T17:04:46;6.07;;;3.47;;
78072;SDS011;67281;48.770;11.440;2023-05-31T17:07:13;4.57;;;3.67;;
78072;SDS011;67281;48.770;11.440;2023-05-31T17:10:15;8.45;;;3.75;;
78072;SDS011;67281;48.770;11.440;2023-05-31T17:12:42;4.53;;;3.17;;
78072;SDS011;67281;48.770;11.440;2023-05-31T17:15:10;3.80;;;3.03;;
78072;SDS011;67281;48.770;11.440;2023-05-31T17:17:46;5.47;;;3.25;;
78072;SDS011;67281;48.770;11.440;2023-05-31T17:20:13;8.40;;;3.33;;
78072;SDS011;67281;48.770;11.440;2023-05-31T17:22:41;8.18;;;3.78;;
78072;SDS011;67281;48.770;11.440;2023-05-31T17:25:08;4.07;;;3.42;;
78072;SDS011;67281;48.770;11.440;2023-05-31T17:27:40;5.93;;;3.25;;
78072;SDS011;67281;48.770;11.440;2023-05-31T17:30:07;5.07;;;3.33;;